Time;durP1;ratioP1;P1;durP2;ratioP2;P2;SDS_P1;SDS_P2;PMS_P1;PMS_P2;Temp;Humidity;BMP_temperature;BMP_pressure;BME280_temperature;BME280_humidity;BME280_pressure;Samples;Min_cycle;Max_cycle;Signal;HPM_P1;HPM_P2
2021/06/11 00:00:33;;;;;;;15.93;9.48;;;;;;;15.89;91.63;98974.80;1720023;82;21611;-72
2021/06/11 00:02:59;;;;;;;22.87;9.63;;;;;;;15.91;91.47;98976.62;1721009;82;21099;-72
2021/06/11 00:05:29;;;;;;;13.95;8.65;;;;;;;15.93;91.35;98971.50;1720008;83;21165;-72
2021/06/11 00:07:57;;;;;;;16.37;10.93;;;;;;;15.94;91.31;98971.13;1719996;82;21028;-73
2021/06/11 00:10:29;;;;;;;12.33;9.45;;;;;;;16.00;91.01;98973.63;1722435;82;21027;-72
2021/06/11 00:12:56;;;;;;;13.62;9.58;;;;;;;15.98;90.93;98976.75;1720613;83;21456;-71
2021/06/11 00:15:25;;;;;;;14.65;10.08;;;;;;;16.01;90.91;98979.39;1720356;83;21086;-73
2021/06/11 00:17:54;;;;;;;16.05;10.93;;;;;;;16.01;90.73;98981.59;1720699;82;22094;-72
2021/06/11 00:20:21;;;;;;;20.12;10.95;;;;;;;16.00;90.66;98979.19;1720578;82;21037;-72
2021/06/11 00:22:48;;;;;;;20.35;11.33;;;;;;;15.95;90.79;98981.64;1720245;82;21606;-72
2021/06/11 00:25:18;;;;;;;15.68;10.48;;;;;;;15.92;90.89;98983.77;1720065;82;21075;-72
2021/06/11 00:27:45;;;;;;;18.10;9.78;;;;;;;15.90;91.02;98977.80;1718789;81;21067;-72
2021/06/11 00:30:14;;;;;;;13.65;8.88;;;;;;;15.94;91.15;98986.41;1722685;82;21076;-73
2021/06/11 00:32:40;;;;;;;9.35;8.30;;;;;;;15.96;90.89;98988.81;1720995;82;21110;-73
2021/06/11 00:35:07;;;;;;;9.33;7.95;;;;;;;15.94;90.95;98990.58;1714294;82;21532;-74
2021/06/11 00:37:38;;;;;;;11.88;8.75;;;;;;;15.91;91.07;98989.94;1712994;83;22180;-72
2021/06/11 00:40:17;;;;;;;8.68;7.83;;;;;;;15.87;91.25;98989.05;1678980;83;21501;-73
2021/06/11 00:42:45;;;;;;;11.93;8.35;;;;;;;15.84;91.51;98990.38;1712219;83;21316;-74
2021/06/11 00:45:15;;;;;;;15.03;8.65;;;;;;;15.79;91.82;98988.70;1712921;83;21001;-73
2021/06/11 00:47:45;;;;;;;9.20;7.72;;;;;;;15.75;92.17;98990.03;1709547;83;21056;-74
2021/06/11 00:50:13;;;;;;;12.78;7.53;;;;;;;15.79;92.50;98988.13;1713647;83;21004;-74
2021/06/11 00:52:41;;;;;;;10.82;8.98;;;;;;;15.82;92.67;98987.39;1712732;83;21553;-73
2021/06/11 00:55:09;;;;;;;10.78;8.05;;;;;;;15.89;92.57;98983.94;1706634;83;21156;-73
2021/06/11 00:57:36;;;;;;;11.63;7.62;;;;;;;15.90;92.57;98981.36;1713198;83;21012;-74
2021/06/11 01:00:04;;;;;;;14.25;8.65;;;;;;;15.90;92.49;98986.92;1713795;83;21013;-73
2021/06/11 01:02:31;;;;;;;9.15;8.05;;;;;;;15.95;92.56;98989.97;1709829;83;21052;-73
2021/06/11 01:04:57;;;;;;;10.10;7.17;;;;;;;15.90;92.30;98991.09;1713389;83;21523;-74
2021/06/11 01:07:24;;;;;;;11.18;7.95;;;;;;;15.87;92.40;98986.27;1712849;83;21548;-75
2021/06/11 01:09:51;;;;;;;18.10;7.87;;;;;;;15.85;92.43;98990.61;1713464;83;21008;-72
2021/06/11 01:12:23;;;;;;;8.13;6.62;;;;;;;15.85;92.49;98994.78;1713535;83;21030;-74
2021/06/11 01:14:49;;;;;;;11.85;6.97;;;;;;;15.82;92.60;98988.78;1706472;83;21043;-73
2021/06/11 01:17:22;;;;;;;8.48;6.78;;;;;;;15.85;92.67;98984.45;1712687;83;21056;-75
2021/06/11 01:19:49;;;;;;;12.58;6.80;;;;;;;15.86;92.58;98988.84;1710011;83;21196;-73
2021/06/11 01:22:22;;;;;;;11.90;7.97;;;;;;;15.85;92.54;98987.83;1688938;83;21514;-74
2021/06/11 01:25:10;;;;;;;11.10;7.53;;;;;;;15.80;92.62;98991.11;1709658;83;21037;-74
2021/06/11 01:27:39;;;;;;;9.20;6.33;;;;;;;15.80;92.62;98998.06;1717945;83;21535;-73
2021/06/11 01:30:09;;;;;;;9.10;6.50;;;;;;;15.85;92.81;98990.61;1712908;83;21551;-72
2021/06/11 01:32:38;;;;;;;10.32;6.95;;;;;;;15.85;92.59;98995.56;1712272;83;21143;-73
2021/06/11 01:35:11;;;;;;;13.22;7.15;;;;;;;15.83;92.50;98990.98;1713591;83;21071;-72
2021/06/11 01:37:38;;;;;;;9.73;6.97;;;;;;;15.80;92.50;98991.11;1731024;82;21063;-73
2021/06/11 01:40:11;;;;;;;9.08;7.08;;;;;;;15.77;92.56;98994.63;1732599;81;21027;-72
2021/06/11 01:42:40;;;;;;;15.08;7.03;;;;;;;15.76;92.62;98993.02;1733505;82;21026;-73
2021/06/11 01:45:10;;;;;;;10.25;6.97;;;;;;;15.74;92.69;98993.17;1733625;81;21801;-73
2021/06/11 01:47:42;;;;;;;11.50;7.35;;;;;;;15.71;92.80;98996.12;1733512;82;21023;-73
2021/06/11 01:50:10;;;;;;;12.18;6.75;;;;;;;15.70;92.86;98997.27;1708085;82;21043;-72
2021/06/11 01:52:37;;;;;;;10.35;7.45;;;;;;;15.68;93.03;98999.03;1733420;82;21058;-73
2021/06/11 01:55:10;;;;;;;12.75;6.47;;;;;;;15.70;93.12;98995.30;1735972;81;21012;-73
2021/06/11 01:57:36;;;;;;;8.80;5.70;;;;;;;15.73;93.16;98996.53;1734084;82;21556;-73
2021/06/11 02:00:06;;;;;;;6.95;6.15;;;;;;;15.73;93.02;98989.59;1736695;81;21594;-72
2021/06/11 02:02:37;;;;;;;12.13;6.03;;;;;;;15.76;93.24;99001.34;1733251;82;21043;-73
2021/06/11 02:05:08;;;;;;;6.05;5.45;;;;;;;15.78;93.06;98999.00;1732429;82;21637;-73
2021/06/11 02:07:38;;;;;;;13.95;6.10;;;;;;;15.77;93.01;99000.19;1733911;82;21059;-74
2021/06/11 02:10:08;;;;;;;7.03;6.30;;;;;;;15.77;92.93;99002.97;1735648;81;21149;-73
2021/06/11 02:12:35;;;;;;;10.25;6.05;;;;;;;15.79;93.05;99000.63;1733980;81;21042;-72
2021/06/11 02:15:09;;;;;;;6.80;6.15;;;;;;;15.85;92.98;99003.11;1733252;82;21043;-73
2021/06/11 02:17:42;;;;;;;6.67;5.87;;;;;;;15.85;92.71;99001.11;1733513;82;21023;-73
2021/06/11 02:20:12;;;;;;;14.20;6.12;;;;;;;15.82;92.67;99003.24;1730432;81;21022;-74
2021/06/11 02:22:43;;;;;;;7.87;6.00;;;;;;;15.80;92.74;99007.78;1733983;81;21805;-74
2021/06/11 02:25:10;;;;;;;10.15;5.83;;;;;;;15.80;92.82;99011.95;1698058;82;20999;-73
2021/06/11 02:27:38;;;;;;;8.10;5.47;;;;;;;15.81;92.86;99008.59;1733598;82;21086;-73
2021/06/11 02:30:11;;;;;;;6.10;5.47;;;;;;;15.80;92.88;99010.55;1737010;81;21622;-73
2021/06/11 02:32:38;;;;;;;11.33;8.90;;;;;;;15.86;93.11;99011.06;1734248;82;27465;-73
2021/06/11 02:35:09;;;;;;;18.35;11.85;;;;;;;15.91;92.96;99015.52;1732406;81;21159;-74
2021/06/11 02:37:36;;;;;;;25.80;16.62;;;;;;;15.90;92.74;99008.36;1718595;83;21020;-75
2021/06/11 02:40:06;;;;;;;33.35;21.15;;;;;;;15.93;92.89;99011.17;1698316;83;21106;-72
2021/06/11 02:42:34;;;;;;;36.17;21.60;;;;;;;16.00;92.81;99011.14;1696810;84;21024;-73
2021/06/11 02:45:08;;;;;;;33.28;20.08;;;;;;;16.02;92.46;99014.36;1677044;83;21024;-72
2021/06/11 02:47:54;;;;;;;37.03;19.67;;;;;;;16.06;92.46;99013.81;1689834;83;21173;-74
2021/06/11 02:50:24;;;;;;;37.75;19.05;;;;;;;16.10;92.34;99015.28;1706991;82;21073;-72
2021/06/11 02:52:56;;;;;;;34.67;18.60;;;;;;;16.15;92.22;99022.73;1699181;84;21028;-73
2021/06/11 02:55:24;;;;;;;29.75;16.40;;;;;;;16.20;91.97;99024.97;1707331;83;20988;-72
2021/06/11 02:58:08;;;;;;;21.73;14.43;;;;;;;16.18;91.66;99028.93;1705818;83;21096;-72
2021/06/11 03:00:34;;;;;;;18.15;11.63;;;;;;;16.18;91.84;99026.73;1684274;83;21389;-73
2021/06/11 03:03:15;;;;;;;16.60;10.88;;;;;;;16.16;91.53;99030.45;1708627;83;21033;-73
2021/06/11 03:05:45;;;;;;;12.85;10.40;;;;;;;16.14;91.57;99025.85;1703127;83;21079;-73
2021/06/11 03:08:13;;;;;;;13.08;10.30;;;;;;;16.11;91.47;99023.81;1696271;83;21013;-72
2021/06/11 03:10:44;;;;;;;9.88;8.88;;;;;;;16.09;91.59;99024.80;1699205;83;20981;-73
2021/06/11 03:13:17;;;;;;;18.00;10.55;;;;;;;16.06;91.61;99031.88;1693957;83;21301;-73
2021/06/11 03:15:45;;;;;;;11.83;9.60;;;;;;;16.03;91.67;99027.88;1712914;83;21024;-72
2021/06/11 03:18:37;;;;;;;14.47;9.73;;;;;;;16.04;91.89;99026.70;1713584;83;21092;-72
2021/06/11 03:21:26;;;;;;;12.65;10.65;;;;;;;16.08;91.83;99027.34;1708495;83;21000;-73
2021/06/11 03:24:05;;;;;;;13.03;10.13;;;;;;;16.04;91.51;99025.30;1713411;83;21063;-72
2021/06/11 03:26:53;;;;;;;10.20;9.13;;;;;;;15.94;91.78;99032.25;1696138;83;21252;-74
2021/06/11 03:29:35;;;;;;;23.67;15.95;;;;;;;15.93;92.20;99027.06;1663762;83;21006;-74
2021/06/11 03:32:06;;;;;;;20.48;18.42;;;;;;;15.89;92.26;99031.16;1679973;82;21043;-73
2021/06/11 03:34:43;;;;;;;19.32;17.00;;;;;;;15.86;92.63;99031.09;1695264;84;21021;-75
2021/06/11 03:37:16;;;;;;;13.98;11.97;;;;;;;15.87;92.74;99028.52;1704114;83;21008;-73
2021/06/11 03:39:53;;;;;;;10.38;8.00;;;;;;;15.90;92.92;99028.59;1701177;84;21037;-75
2021/06/11 03:42:20;;;;;;;9.23;8.28;;;;;;;15.88;92.89;99026.76;1684753;85;21054;-73
2021/06/11 03:44:50;;;;;;;11.10;8.25;;;;;;;15.89;92.97;99030.34;1693334;83;21517;-73
2021/06/11 03:47:19;;;;;;;10.18;7.85;;;;;;;15.85;93.08;99026.72;1702841;83;21553;-74
2021/06/11 03:49:50;;;;;;;8.10;7.22;;;;;;;15.85;93.30;99030.88;1706373;83;21072;-74
2021/06/11 03:52:21;;;;;;;12.28;7.60;;;;;;;15.88;93.51;99032.92;1691985;84;21117;-75
2021/06/11 03:54:47;;;;;;;7.53;6.28;;;;;;;15.91;93.38;99030.79;1689050;83;21038;-73
2021/06/11 03:57:17;;;;;;;9.08;7.22;;;;;;;15.94;93.38;99036.99;1661653;85;21580;-72
2021/06/11 03:59:46;;;;;;;15.53;6.62;;;;;;;15.91;93.17;99031.60;1692227;83;20989;-74
2021/06/11 04:02:15;;;;;;;9.65;6.47;;;;;;;15.88;93.24;99032.92;1686026;83;21073;-73
2021/06/11 04:04:46;;;;;;;6.90;5.95;;;;;;;15.87;93.42;99034.89;1696346;83;21087;-72
2021/06/11 04:07:31;;;;;;;7.87;6.67;;;;;;;15.94;93.61;99031.44;1693187;83;21056;-73
2021/06/11 04:10:10;;;;;;;7.60;6.10;;;;;;;15.96;93.36;99037.44;1669850;84;21497;-72
2021/06/11 04:12:42;;;;;;;8.68;6.85;;;;;;;15.92;93.38;99046.27;1673956;84;21616;-73
2021/06/11 04:15:12;;;;;;;9.65;6.37;;;;;;;15.90;93.65;99045.25;1666846;85;21180;-73
2021/06/11 04:17:44;;;;;;;7.50;6.80;;;;;;;15.91;93.79;99045.48;1682829;83;21132;-73
2021/06/11 04:20:16;;;;;;;10.90;6.58;;;;;;;15.90;93.81;99048.03;1689360;83;21532;-75
2021/06/11 04:22:44;;;;;;;10.98;6.42;;;;;;;15.88;93.96;99048.98;1683953;83;21069;-72
2021/06/11 04:25:14;;;;;;;11.15;6.53;;;;;;;15.93;94.28;99045.12;1670550;83;21111;-72
2021/06/11 04:27:45;;;;;;;7.58;6.05;;;;;;;15.97;94.08;99047.97;1691647;84;21078;-73
2021/06/11 04:30:13;;;;;;;12.40;5.85;;;;;;;16.02;94.22;99044.31;1688059;84;21136;-72
2021/06/11 04:32:41;;;;;;;14.73;6.55;;;;;;;16.08;93.76;99046.21;1628778;85;21097;-73
2021/06/11 04:35:08;;;;;;;7.80;5.83;;;;;;;16.05;93.55;99049.13;1697974;83;21095;-73
2021/06/11 04:37:36;;;;;;;13.20;7.08;;;;;;;16.02;93.51;99045.70;1662794;85;21133;-73
2021/06/11 04:40:05;;;;;;;8.58;6.55;;;;;;;16.04;93.55;99051.70;1677255;83;21060;-72
2021/06/11 04:42:33;;;;;;;8.00;6.40;;;;;;;16.04;93.50;99051.70;1673147;85;21125;-73
2021/06/11 04:45:04;;;;;;;9.10;6.78;;;;;;;16.08;93.74;99056.52;1671344;85;21084;-73
2021/06/11 04:47:30;;;;;;;8.63;6.00;;;;;;;16.17;93.85;99057.09;1683305;83;21051;-74
2021/06/11 04:50:00;;;;;;;9.80;5.80;;;;;;;16.23;93.39;99056.18;1694792;83;21013;-72
2021/06/11 04:52:27;;;;;;;9.75;6.70;;;;;;;16.32;93.29;99060.11;1702324;83;21138;-73
2021/06/11 04:54:55;;;;;;;10.85;7.37;;;;;;;16.31;92.78;99057.91;1690588;82;21368;-74
2021/06/11 04:57:21;;;;;;;9.43;6.30;;;;;;;16.28;92.65;99061.44;1691254;84;21010;-73
2021/06/11 04:59:48;;;;;;;8.48;6.33;;;;;;;16.28;92.80;99058.08;1691279;84;21089;-71
2021/06/11 05:02:14;;;;;;;16.37;7.08;;;;;;;16.34;92.75;99065.53;1693557;84;21512;-74
2021/06/11 05:04:41;;;;;;;8.15;6.47;;;;;;;16.34;92.64;99062.75;1697661;84;21013;-73
2021/06/11 05:07:08;;;;;;;11.50;7.08;;;;;;;16.36;92.53;99055.43;1692705;84;21161;-73
2021/06/11 05:09:36;;;;;;;15.40;6.08;;;;;;;16.43;92.70;99048.00;1697526;84;20978;-72
2021/06/11 05:12:03;;;;;;;10.10;7.05;;;;;;;16.53;92.67;99056.91;1678466;84;21025;-73
2021/06/11 05:14:31;;;;;;;12.15;6.50;;;;;;;16.60;91.97;99046.48;1671447;85;21017;-74
2021/06/11 05:17:03;;;;;;;7.55;6.22;;;;;;;16.69;91.69;99055.36;1669871;84;20991;-73
2021/06/11 05:19:33;;;;;;;9.33;6.47;;;;;;;16.81;91.56;99047.97;1665791;84;21035;-74
2021/06/11 05:22:03;;;;;;;10.93;6.75;;;;;;;16.81;91.56;99047.97;1692759;84;20986;-74
2021/06/11 05:24:32;;;;;;;8.40;5.58;;;;;;;16.97;91.43;99045.05;1698401;84;21021;-73
2021/06/11 05:27:08;;;;;;;11.95;6.00;;;;;;;17.02;90.34;99046.92;1662685;84;21554;-75
2021/06/11 05:33:21;;;;;;;7.45;5.95;;;;;;;17.05;90.14;99053.70;1637463;86;21156;-71
2021/06/11 05:35:48;;;;;;;15.75;6.25;;;;;;;17.14;89.78;99053.47;1672943;84;21608;-74
2021/06/11 05:38:17;;;;;;;12.25;6.78;;;;;;;17.14;89.18;99060.42;1723625;82;21033;-71
2021/06/11 05:40:43;;;;;;;10.55;5.95;;;;;;;17.12;89.14;99059.99;1709425;83;21055;-73
2021/06/11 05:43:13;;;;;;;10.15;6.28;;;;;;;17.13;89.20;99066.57;1693401;84;21095;-71
2021/06/11 05:45:41;;;;;;;8.95;5.62;;;;;;;17.11;89.20;99068.92;1711309;83;21204;-73
2021/06/11 05:48:08;;;;;;;12.03;6.08;;;;;;;17.11;89.00;99070.31;1722154;82;21446;-72
2021/06/11 05:50:36;;;;;;;13.00;5.65;;;;;;;17.14;88.62;99063.98;1713588;82;20988;-73
2021/06/11 05:53:02;;;;;;;13.90;7.97;;;;;;;17.20;88.82;99073.41;1696224;83;21052;-73
2021/06/11 05:55:31;;;;;;;12.65;6.30;;;;;;;17.26;88.61;99065.73;1688520;83;21786;-74
2021/06/11 05:58:00;;;;;;;8.23;5.95;;;;;;;17.32;88.30;99069.01;1687762;84;21025;-72
2021/06/11 06:00:29;;;;;;;6.30;5.55;;;;;;;17.31;87.26;99069.39;1695741;83;21712;-74
2021/06/11 06:02:56;;;;;;;9.63;5.55;;;;;;;17.30;87.83;99071.36;1691145;83;21027;-73
2021/06/11 06:05:24;;;;;;;8.00;5.62;;;;;;;17.34;87.82;99072.22;1705757;83;20999;-72
2021/06/11 06:07:52;;;;;;;13.08;6.78;;;;;;;17.47;87.96;99074.78;1701377;83;21545;-74
2021/06/11 06:10:20;;;;;;;9.25;6.03;;;;;;;17.52;86.75;99075.23;1712788;83;21145;-72
2021/06/11 06:12:48;;;;;;;8.33;6.62;;;;;;;17.53;86.57;99076.05;1709567;83;21029;-74
2021/06/11 06:15:15;;;;;;;19.37;6.55;;;;;;;17.59;87.08;99076.49;1701036;82;21541;-75
2021/06/11 06:17:43;;;;;;;9.93;6.25;;;;;;;17.69;86.98;99083.41;1705121;83;21044;-74
2021/06/11 06:20:11;;;;;;;7.10;5.08;;;;;;;17.82;86.47;99083.94;1704400;83;21037;-73
2021/06/11 06:22:38;;;;;;;9.90;6.55;;;;;;;17.94;85.76;99083.69;1704250;83;21176;-73
2021/06/11 06:25:05;;;;;;;18.77;5.85;;;;;;;17.95;83.85;99086.67;1700409;82;21037;-74
2021/06/11 06:27:36;;;;;;;12.53;5.83;;;;;;;17.90;84.18;99084.23;1705169;83;21053;-74
2021/06/11 06:30:07;;;;;;;13.03;6.42;;;;;;;17.91;84.05;99085.84;1702378;83;21541;-73
2021/06/11 06:32:41;;;;;;;10.82;5.50;;;;;;;17.89;83.14;99091.00;1697389;83;21084;-74
2021/06/11 06:35:10;;;;;;;10.08;5.08;;;;;;;17.86;83.21;99088.36;1706694;83;21073;-75
2021/06/11 06:45:19;;;;;;;9.55;6.05;;;;;;;18.10;82.07;99089.64;1733657;82;21047;-73
2021/06/11 06:48:23;;;;;;;9.20;4.62;;;;;;;18.11;82.04;99084.26;1737515;81;21031;-73
2021/06/11 06:51:41;;;;;;;9.15;4.65;;;;;;;18.10;81.03;99086.23;1679216;84;21058;-72
2021/06/11 06:54:17;;;;;;;9.88;5.60;;;;;;;18.08;81.38;99094.17;1663234;85;21023;-73
2021/06/11 06:56:44;;;;;;;7.15;5.72;;;;;;;18.10;80.45;99093.20;1665550;86;21054;-73
2021/06/11 06:59:21;;;;;;;5.42;3.92;;;;;;;18.13;80.52;99088.89;1671917;84;21061;-74
2021/06/11 07:01:49;;;;;;;5.95;4.10;;;;;;;18.24;80.75;99089.80;1699673;82;21332;-72
2021/06/11 07:04:18;;;;;;;8.83;3.67;;;;;;;18.37;80.17;99088.91;1733156;82;21778;-73
2021/06/11 07:06:49;;;;;;;12.05;4.67;;;;;;;18.47;79.70;99087.44;1733607;82;21071;-73
2021/06/11 07:09:14;;;;;;;6.75;4.12;;;;;;;18.61;78.91;99091.53;1733622;82;21035;-72
2021/06/11 07:11:41;;;;;;;5.22;3.55;;;;;;;18.74;76.64;99087.84;1734753;81;21039;-72
2021/06/11 07:14:08;;;;;;;4.42;3.50;;;;;;;18.75;76.89;99085.86;1733885;82;21027;-72
2021/06/11 07:16:37;;;;;;;11.75;4.25;;;;;;;18.83;76.99;99084.72;1729837;82;21187;-72
2021/06/11 07:19:03;;;;;;;5.30;3.85;;;;;;;18.94;77.13;99086.98;1733384;82;21016;-73
2021/06/11 07:21:30;;;;;;;5.78;4.20;;;;;;;19.07;76.70;99081.10;1733782;82;21625;-72
2021/06/11 07:23:56;;;;;;;4.72;4.08;;;;;;;19.19;76.61;99075.82;1733994;82;21086;-75
2021/06/11 07:26:31;;;;;;;6.28;4.37;;;;;;;19.21;74.52;99081.20;1733656;82;21019;-73
2021/06/11 07:28:58;;;;;;;7.78;4.62;;;;;;;19.10;74.80;99080.31;1733226;82;21136;-73
2021/06/11 07:31:29;;;;;;;6.37;3.20;;;;;;;19.16;74.88;99088.55;1733408;82;21046;-74
2021/06/11 07:33:59;;;;;;;5.97;3.70;;;;;;;19.20;75.00;99090.78;1729798;82;20999;-74
2021/06/11 07:36:29;;;;;;;4.03;3.58;;;;;;;19.32;75.01;99086.05;1734100;82;21047;-73
2021/06/11 07:38:57;;;;;;;4.65;3.40;;;;;;;19.43;75.12;99091.09;1733179;82;21011;-73
2021/06/11 07:41:23;;;;;;;4.92;3.98;;;;;;;19.53;73.85;99095.73;1717693;81;21115;-74
2021/06/11 07:43:53;;;;;;;6.22;3.90;;;;;;;19.55;72.44;99089.17;1713582;83;21126;-73
2021/06/11 07:46:22;;;;;;;6.53;4.10;;;;;;;19.54;72.24;99088.95;1711742;83;21066;-73
2021/06/11 07:48:52;;;;;;;9.85;3.50;;;;;;;19.52;72.63;99084.34;1710668;83;21097;-74
2021/06/11 07:51:18;;;;;;;7.70;3.90;;;;;;;19.61;73.23;99082.00;1707265;83;21070;-74
2021/06/11 07:53:44;;;;;;;4.47;3.05;;;;;;;19.77;72.59;99085.06;1711763;83;21493;-74
2021/06/11 07:56:14;;;;;;;5.05;3.45;;;;;;;19.90;72.01;99094.69;1687624;83;21043;-73
2021/06/11 07:58:42;;;;;;;5.62;3.37;;;;;;;20.00;71.51;99092.30;1717791;83;21024;-73
2021/06/11 08:01:08;;;;;;;7.22;3.65;;;;;;;20.08;69.51;99093.95;1719293;83;21458;-73
2021/06/11 08:03:41;;;;;;;6.78;3.52;;;;;;;20.11;68.64;99091.78;1687899;84;21078;-73
2021/06/11 08:06:10;;;;;;;7.10;3.15;;;;;;;20.13;69.61;99093.56;1667999;86;22030;-74
2021/06/11 08:08:36;;;;;;;6.47;3.12;;;;;;;20.21;68.66;99090.79;1687778;84;21079;-72
2021/06/11 08:11:11;;;;;;;4.50;3.08;;;;;;;20.26;68.62;99095.41;1684386;84;21618;-73
2021/06/11 08:13:38;;;;;;;8.90;3.37;;;;;;;20.33;68.78;99093.22;1661867;84;21504;-72
2021/06/11 08:16:07;;;;;;;6.62;3.17;;;;;;;20.41;68.63;99100.41;1683760;84;21079;-73
2021/06/11 08:18:33;;;;;;;8.80;3.35;;;;;;;20.43;69.11;99100.83;1682765;84;21539;-74
2021/06/11 08:21:03;;;;;;;5.37;3.92;;;;;;;20.40;68.37;99097.40;1678947;84;21064;-74
2021/06/11 08:23:31;;;;;;;8.08;3.42;;;;;;;20.19;67.26;99097.59;1684805;84;21638;-73
2021/06/11 08:26:07;;;;;;;5.47;4.10;;;;;;;20.07;66.94;99096.55;1670562;84;21586;-74
2021/06/11 08:28:35;;;;;;;8.85;3.87;;;;;;;19.94;67.45;99095.48;1685699;84;21031;-75
2021/06/11 08:31:02;;;;;;;5.58;3.33;;;;;;;19.91;68.44;99104.66;1684818;84;21490;-75
2021/06/11 08:33:30;;;;;;;8.60;3.83;;;;;;;19.98;68.21;99096.89;1685303;84;21480;-73
2021/06/11 08:35:57;;;;;;;5.92;4.25;;;;;;;19.98;67.70;99102.48;1679601;84;21543;-74
2021/06/11 08:38:24;;;;;;;5.92;4.00;;;;;;;20.03;68.34;99094.30;1686166;84;21043;-73
2021/06/11 08:40:56;;;;;;;9.10;3.40;;;;;;;20.13;67.59;99107.55;1654051;84;21048;-74
2021/06/11 08:43:26;;;;;;;6.65;4.12;;;;;;;20.12;67.25;99100.36;1695612;84;21135;-73
2021/06/11 08:45:56;;;;;;;6.05;4.37;;;;;;;20.13;66.53;99113.14;1690482;84;21099;-75
2021/06/11 08:48:26;;;;;;;9.45;3.80;;;;;;;20.03;66.58;99104.89;1695575;84;20992;-74
2021/06/11 08:50:54;;;;;;;4.53;3.40;;;;;;;19.99;67.22;99106.90;1686679;85;21036;-75
2021/06/11 08:53:29;;;;;;;5.85;3.87;;;;;;;20.01;67.12;99105.88;1706051;83;21096;-74
2021/06/11 08:56:00;;;;;;;8.55;3.67;;;;;;;20.02;66.92;99096.32;1703716;84;21017;-75
2021/06/11 08:58:29;;;;;;;4.25;3.08;;;;;;;20.05;66.98;99104.53;1706652;84;21049;-73
2021/06/11 09:00:55;;;;;;;3.33;2.87;;;;;;;20.06;66.69;99104.13;1706736;83;21536;-74
2021/06/11 09:03:33;;;;;;;4.37;3.30;;;;;;;20.01;66.57;99098.89;1707086;84;21057;-74
2021/06/11 09:06:04;;;;;;;5.33;3.45;;;;;;;19.98;66.33;99099.69;1706357;84;21037;-73
2021/06/11 09:16:20;;;;;;;7.20;3.67;;;;;;;20.13;65.42;99092.16;1549572;91;21180;-72
2021/06/11 09:19:02;;;;;;;4.12;2.95;;;;;;;20.38;65.75;99093.41;1703475;83;21091;-72
2021/06/11 09:21:43;;;;;;;3.37;2.87;;;;;;;20.57;66.22;99094.23;1687886;84;21063;-74
2021/06/11 09:24:26;;;;;;;6.33;3.20;;;;;;;20.72;65.55;99090.83;1702064;83;21958;-74
2021/06/11 09:27:07;;;;;;;3.83;3.30;;;;;;;20.97;65.40;99085.23;1702476;83;21070;-74
2021/06/11 09:33:13;;;;;;;4.75;3.10;;;;;;;21.03;61.66;99083.62;1546714;91;21112;-74
2021/06/11 09:35:44;;;;;;;5.03;3.17;;;;;;;20.96;62.18;99072.45;1648547;85;21496;-76
2021/06/11 09:38:27;;;;;;;3.87;3.35;;;;;;;21.11;61.92;99073.81;1672401;85;21166;-77
2021/06/11 09:41:05;;;;;;;6.43;3.50;;;;;;;21.30;62.22;99068.96;1694422;83;21074;-73
2021/06/11 09:43:32;;;;;;;8.80;4.83;;;;;;;21.52;61.36;99069.09;1673243;85;21272;-77
2021/06/11 09:46:12;;;;;;;10.10;3.42;;;;;;;21.69;62.09;99067.21;1654042;86;21048;-75
2021/06/11 09:48:45;;;;;;;3.52;2.83;;;;;;;21.80;61.25;99070.81;1655829;86;21570;-76
2021/06/11 09:51:17;;;;;;;4.58;3.15;;;;;;;21.79;59.87;99072.00;1658853;86;21067;-73
2021/06/11 09:53:43;;;;;;;4.95;3.25;;;;;;;21.78;59.39;99073.19;1656240;86;21555;-76
2021/06/11 09:56:25;;;;;;;9.38;3.20;;;;;;;21.63;59.49;99073.23;1659280;86;21059;-75
2021/06/11 09:59:04;;;;;;;8.30;3.77;;;;;;;21.58;60.54;99068.68;1708027;83;21071;-74
2021/06/11 10:01:32;;;;;;;4.03;3.12;;;;;;;21.69;61.64;99065.81;1708799;83;21015;-76
2021/06/11 10:03:58;;;;;;;4.45;2.98;;;;;;;21.84;61.62;99070.17;1705310;83;21746;-75
2021/06/11 10:06:27;;;;;;;4.95;3.47;;;;;;;22.03;61.80;99065.86;1709102;83;21017;-75
2021/06/11 10:08:54;;;;;;;5.87;3.08;;;;;;;22.19;60.49;99075.19;1708391;83;21542;-74
2021/06/11 10:11:24;;;;;;;8.28;3.70;;;;;;;22.28;59.90;99074.73;1709473;83;21032;-75
2021/06/11 10:14:01;;;;;;;6.58;3.65;;;;;;;22.34;60.76;99071.08;1705703;83;21020;-75
2021/06/11 10:16:33;;;;;;;10.03;3.37;;;;;;;22.38;60.08;99071.05;1686623;83;20990;-78
2021/06/11 10:19:02;;;;;;;5.17;3.02;;;;;;;22.40;60.72;99069.23;1705928;83;21609;-75
2021/06/11 10:21:30;;;;;;;3.65;3.15;;;;;;;22.45;60.49;99073.78;1697312;83;21049;-76
2021/06/11 10:24:10;;;;;;;6.37;2.77;;;;;;;22.42;57.36;99069.00;1707574;83;21044;-76
2021/06/11 10:26:39;;;;;;;3.77;2.77;;;;;;;22.24;57.31;99060.73;1697164;83;21087;-74
2021/06/11 10:29:05;;;;;;;4.00;3.33;;;;;;;22.27;58.86;99067.51;1687176;83;21275;-75
2021/06/11 10:31:37;;;;;;;5.12;3.40;;;;;;;22.32;57.22;99069.88;1708773;83;21093;-75
2021/06/11 10:34:08;;;;;;;4.87;3.40;;;;;;;22.27;56.69;99061.30;1710135;83;21141;-75
2021/06/11 10:36:44;;;;;;;8.73;3.77;;;;;;;22.20;57.35;99066.95;1709536;83;21072;-74
2021/06/11 10:39:22;;;;;;;13.43;3.95;;;;;;;22.16;58.98;99054.98;1705661;83;21284;-76
2021/06/11 10:42:11;;;;;;;7.55;3.65;;;;;;;22.22;58.11;99061.14;1719961;82;21152;-73
2021/06/11 10:44:56;;;;;;;3.08;2.45;;;;;;;22.27;57.31;99066.91;1728735;82;21003;-76
2021/06/11 10:47:24;;;;;;;3.92;2.70;;;;;;;22.23;55.48;99066.13;1729506;82;21089;-74
2021/06/11 10:50:08;;;;;;;9.23;3.10;;;;;;;22.10;55.44;99063.02;1733529;82;21055;-74
2021/06/11 10:52:50;;;;;;;4.47;2.85;;;;;;;22.04;57.05;99057.03;1730832;82;21094;-76
2021/06/11 10:55:24;;;;;;;4.17;3.05;;;;;;;22.04;56.33;99059.84;1733797;82;21144;-74
2021/06/11 10:58:00;;;;;;;11.50;3.25;;;;;;;22.09;56.29;99048.19;1733760;82;21077;-73
2021/06/11 11:00:44;;;;;;;14.50;3.65;;;;;;;22.13;57.20;99045.36;1733754;82;21035;-72
2021/06/11 11:03:28;;;;;;;;;;;;;;;22.17;56.67;99040.54;1735367;82;21042;-73
2021/06/11 11:05:55;;;;;;;;;;;;;;;22.32;57.87;99048.23;1735499;82;20224;-73
2021/06/11 11:08:21;;;;;;;4.40;3.35;;;;;;;22.50;57.74;99040.30;1734060;82;22149;-73
2021/06/11 11:10:52;;;;;;;7.35;3.05;;;;;;;22.56;55.76;99052.66;1733826;82;21030;-73
2021/06/11 11:13:29;;;;;;;3.15;2.85;;;;;;;22.46;56.90;99047.94;1733891;82;21058;-73
2021/06/11 11:16:03;;;;;;;8.23;3.27;;;;;;;22.58;58.33;99049.44;1733603;82;21007;-73
2021/06/11 11:18:35;;;;;;;5.17;3.08;;;;;;;22.78;58.93;99048.28;1734271;82;20999;-73
2021/06/11 11:21:26;;;;;;;4.75;3.20;;;;;;;22.90;57.19;99046.16;1732667;82;21144;-73
2021/06/11 11:31:48;;;;;;;7.42;3.40;;;;;;;22.96;57.57;99037.49;1579228;90;21119;-73
2021/06/11 11:34:19;;;;;;;8.73;3.00;;;;;;;22.96;56.64;99031.88;1579783;89;21381;-75
2021/06/11 11:36:55;;;;;;;11.53;3.40;;;;;;;23.07;56.84;99036.77;1592010;88;21096;-76
2021/06/11 11:39:25;;;;;;;6.20;3.02;;;;;;;23.11;56.61;99025.49;1606813;89;21042;-75
2021/06/11 11:41:56;;;;;;;3.77;3.02;;;;;;;23.20;56.43;99036.23;1572406;88;21080;-75
2021/06/11 11:44:19;;;;;;;8.83;2.62;;;;;;;23.15;55.15;99032.48;1669973;84;21491;-73
2021/06/11 11:46:47;;;;;;;11.05;3.00;;;;;;;22.88;55.20;99028.95;1676195;85;21056;-75
2021/06/11 11:49:16;;;;;;;3.00;2.52;;;;;;;22.60;55.27;99026.75;1692571;83;21754;-77
2021/06/11 11:51:45;;;;;;;3.92;2.20;;;;;;;22.57;56.76;99028.98;1686183;83;21018;-74
2021/06/11 11:54:12;;;;;;;3.33;2.37;;;;;;;22.74;57.25;99029.26;1654183;83;21046;-73
2021/06/11 11:56:40;;;;;;;4.97;2.67;;;;;;;22.93;56.85;99027.07;1694145;83;21040;-75
2021/06/11 11:59:07;;;;;;;5.08;2.45;;;;;;;23.03;56.83;99023.35;1693107;83;21099;-76
2021/06/11 12:01:39;;;;;;;4.65;2.50;;;;;;;23.15;56.38;99019.84;1693981;83;21147;-75
2021/06/11 12:04:07;;;;;;;5.25;2.37;;;;;;;23.12;54.61;99028.48;1693605;83;21033;-75
2021/06/11 12:06:35;;;;;;;6.85;2.42;;;;;;;22.95;55.15;99027.45;1656192;84;22154;-76
2021/06/11 12:09:05;;;;;;;2.67;2.10;;;;;;;22.79;55.97;99019.61;1683763;83;21781;-75
2021/06/11 12:11:32;;;;;;;8.80;2.40;;;;;;;22.82;55.46;99013.96;1667149;84;21040;-73
2021/06/11 12:14:02;;;;;;;4.22;2.33;;;;;;;22.94;55.50;99015.45;1692478;83;21165;-73
2021/06/11 12:16:30;;;;;;;3.70;2.70;;;;;;;23.05;54.75;99018.12;1685894;83;21063;-74